MMZC/ZCL METAR and TAF weather

Enter ICAO airport designator
Station Type Date Time Source
MMZC METAR 2020/01/18 23:55 UTC NOAA

MMZC 182355Z 18006KT 10SM BKN030 BKN200 17/06 A3027 RMK 8/401


Station Type Date Time Source
MMZC Decoded METAR 2020/01/18 23:55 UTC NOAA

Zacatecas Airport, Mexico (MMZC) 22-54N 102-41W
Jan 18, 2020 - 06:55 PM EST / 2020.01.18 2355 UTC
Wind: from the S (180 degrees) at 7 MPH (6 KT):0
Visibility: 10 mile(s):0
Sky conditions: mostly cloudy
Temperature: 62 F (17 C)
Dew Point: 42 F (6 C)
Relative Humidity: 48%
Pressure (altimeter): 30.27 in. Hg (1025 hPa)
ob: MMZC 182355Z 18006KT 10SM BKN030 BKN200 17/06 A3027 RMK 8/401
cycle: 0

Station Type Date Time Source
MMZC TAF 2020/01/18 18:33 UTC NOAA

TAF MMZC 181631Z 1818/1924 00000KT P6SM SCT030 BKN200 TX19/1821Z TN07/1912Z
FM190300 03005KT P6SM BKN200
FM191000 03005KT 5SM HZ SCT015 BKN200
TEMPO 1912/1916 3SM BR BKN020
FM191800 13010KT P6SM BKN030

Example: see airport list